Barbados Meteorological Services
Auto gathered TAF list
Powered by Apparatus software
For Flight AA2296
Contact Number 1-(246)-535-0021/2/3/4/5/6
WEB: http://www.barbadosweather.org

**********************************************

2019/07/21 12:06
TAF TLPL 211100Z 2112/2212 09016KT 9999 FEW025
TEMPO 2204/2212 5000 SHRA FEW015CB BKN018 BKN038


**********************************************
2019/07/21 12:36
TAF TJSJ 211130Z 2112/2212 11004KT P6SM VCSH FEW025 SCT050
FM211500 06014G20KT P6SM VCSH SCT025 SCT035
FM211700 06017G24KT P6SM VCTS SCT030CB SCT070 BKN100
FM212300 08012KT P6SM VCSH SCT025 SCT080
FM220040 10005KT P6SM FEW024


**********************************************
2019/07/21 12:31
TAF TFFR 211000Z 2112/2212 11014KT 9999 SCT025 PROB40
TEMPO 2112/2118 4000 -SHRA BKN015TCU PROB40
TEMPO 2206/2212 3000 SHRA BKN015TCU


**********************************************
2019/07/21 12:50
TAF TBPB 211100Z 2112/2212 09015KT 9999 SCT020 PROB30
TEMPO 2121/2212 09015G28KT 5000 SHRA BKN014 FEW015CB SCT034


**********************************************
2019/07/21 12:27
TAF TAF TAPA 211100Z 2112/2212 09010KT 9999 SCT019


**********************************************
2019/07/21 12:56
TAF MYNN 211045Z 2112/2212 08005KT 9999 VCSH FEW018CB SCT080 BKN250


**********************************************
2019/07/21 12:58
TAF MTPP 211139Z 2112/2212 12005KT 9000 FEW020
BECMG 2118/2120 30012KT PROB40
TEMPO 2121/2203 4800 TSRA SCT014CB SCT030
BECMG 2206/2210 VRB02KT 9000 NSW FEW018


**********************************************
2019/07/21 12:44
TAF MDSD 211000Z 2112/2212 02004KT 9999 SCT018 PROB30 2114/2120 7000 -TSRA FEW016CB BKN018


**********************************************
2019/07/21 12:48
TAF KSFB 211144Z 2112/2212 VRB04KT P6SM SKC
FM211400 15005KT P6SM SCT035 SCT250
FM211900 14007KT P6SM VCTS SCT035CB BKN080
TEMPO 2119/2122 3SM TSRA BKN025CB BKN040
FM212300 12005KT P6SM VCSH SCT040 BKN100 BKN250
FM220100 VRB03KT P6SM SCT100 BKN250


**********************************************
2019/07/21 14:33
TAF
AMD KPHL 211425Z 2114/2218 29009KT P6SM SCT150
FM212000 26011G18KT P6SM SCT040
FM212300 28009G15KT P6SM VCTS BKN040CB
FM220300 VRB04KT P6SM BKN040
FM221700 22005KT P6SM VCSH BKN050


**********************************************
2019/07/21 15:58
TAF
AMD KPBI 211458Z 2115/2212 12012KT P6SM VCTS SCT025CB BKN250
FM220100 11006KT P6SM SCT025 BKN200
FM220700 08003KT P6SM SCT025 SCT250


**********************************************
2019/07/21 15:00
TAF
AMD KOPF 211458Z 2115/2212 13010KT P6SM VCSH FEW020 SCT250
FM220000 10005KT P6SM SCT025 BKN200
FM220600 08003KT P6SM FEW030 SCT250


**********************************************


**********************************************
2019/07/21 15:58
TAF
AMD KMIA 211458Z 2115/2218 12012KT P6SM VCSH FEW025 SCT250
FM220100 10006KT P6SM FEW025 BKN200
FM220700 VRB03KT P6SM FEW030 SCT250


**********************************************
2019/07/21 15:15
TAF
AMD KMCO 211512Z 2115/2218 14007KT P6SM SCT035
FM211830 13008KT P6SM VCTS SCT045CB BKN080
TEMPO 2119/2122 3SM TSRA BKN025CB OVC040
FM212300 12005KT P6SM VCSH SCT040 BKN100 BKN250
FM220300 VRB03KT P6SM SCT100 BKN250
FM221400 15005KT P6SM SCT030


**********************************************
2019/07/21 15:33
TAF
AMD KJFK 211431Z 2115/2218 26010KT P6SM SCT120 SCT250
FM211600 24012KT P6SM FEW050 SCT250
FM211800 20013G20KT P6SM SCT060 SCT250
FM212300 28012KT P6SM SCT060 BKN200
FM220200 32008KT P6SM FEW060 SCT250
FM220800 02005KT P6SM SCT050 BKN150
FM221400 08005KT P6SM BKN050 BKN100
FM221700 14006KT P6SM OVC050


**********************************************
2019/07/21 12:30
TAF KJAX 211129Z 2112/2212 VRB04KT P6SM FEW007 SCT250
FM211300 23006KT P6SM FEW030 SCT250
FM212000 13008KT P6SM VCTS SCT040CB
FM220100 VRB04KT P6SM SCT250


**********************************************
2019/07/21 15:58
TAF
AMD KFLL 211458Z 2115/2218 11012KT P6SM VCTS SCT030CB SCT250
FM220100 11006KT P6SM SCT025 BKN200
FM220700 10004KT P6SM SCT025 SCT250


**********************************************
2019/07/21 15:36
TAF
AMD KEWR 211433Z 2115/2218 28011KT P6SM SCT120 SCT250
FM211700 27012G19KT P6SM SCT060 SCT250
FM212000 28015G23KT P6SM SCT060 SCT250
FM212300 29011G18KT P6SM SCT060 SCT250
FM220200 33007KT P6SM FEW060 SCT250
FM220700 03005KT P6SM SCT050 BKN150
FM221400 07005KT P6SM BKN050 BKN100
FM221700 12006KT P6SM OVC050


**********************************************
2019/07/21 14:58
TAF
AMD KCLT 211357Z 2114/2218 23008KT P6SM FEW040 SCT250
FM211700 23010G16KT P6SM SCT050
FM220100 21005KT P6SM FEW250
FM221500 23009KT P6SM SCT050 BKN250


**********************************************
2019/07/21 14:33
TAF
AMD KATL 211330Z 2114/2218 24007KT P6SM SCT025
TEMPO 2114/2115 BKN015
FM211800 23008KT P6SM VCSH SCT045
FM220200 24004KT P6SM SCT150 SCT250
FM221500 24007KT P6SM BKN035


**********************************************